createdAt,value
2018-12-14T00:00:34.404Z,14.70
2018-12-14T00:01:34.430Z,15.10
2018-12-14T00:02:34.451Z,14.60
2018-12-14T00:03:34.474Z,15.20
2018-12-14T00:04:34.500Z,15.20
2018-12-14T00:05:34.520Z,14.40
2018-12-14T00:06:34.544Z,16.00
2018-12-14T00:07:34.569Z,14.70
2018-12-14T00:08:34.590Z,14.00
2018-12-14T00:09:34.613Z,15.20
2018-12-14T00:10:34.637Z,15.30
2018-12-14T00:11:34.661Z,15.50
2018-12-14T00:12:34.683Z,15.20
2018-12-14T00:13:34.706Z,15.00
2018-12-14T00:14:34.728Z,14.60
2018-12-14T00:15:34.752Z,15.40
2018-12-14T00:16:34.775Z,14.70
2018-12-14T00:17:34.799Z,15.30
2018-12-14T00:18:34.824Z,14.90
2018-12-14T00:19:34.846Z,15.00
2018-12-14T00:20:34.868Z,14.50
2018-12-14T00:21:34.891Z,15.00
2018-12-14T00:22:34.914Z,15.10
2018-12-14T00:23:34.938Z,15.60
2018-12-14T00:24:34.962Z,16.60
2018-12-14T00:25:34.985Z,15.70
2018-12-14T00:26:35.006Z,15.90
2018-12-14T00:27:35.030Z,16.10
2018-12-14T00:28:35.053Z,15.90
2018-12-14T00:29:35.076Z,16.10
2018-12-14T00:30:35.098Z,16.10
2018-12-14T00:31:35.122Z,15.30
2018-12-14T00:32:35.146Z,15.30
2018-12-14T00:33:35.168Z,15.60
2018-12-14T00:34:35.191Z,15.00
2018-12-14T00:35:35.217Z,16.90
2018-12-14T00:36:35.238Z,16.50
2018-12-14T00:37:35.262Z,15.80
2018-12-14T00:38:35.283Z,16.20
2018-12-14T00:39:35.306Z,15.60
2018-12-14T00:40:35.330Z,17.10
2018-12-14T00:41:35.355Z,16.60
2018-12-14T00:42:35.375Z,17.00
2018-12-14T00:43:35.398Z,16.10
2018-12-14T00:44:35.421Z,15.30
2018-12-14T00:45:35.446Z,16.10
2018-12-14T00:46:35.467Z,16.10
2018-12-14T00:47:35.493Z,14.70
2018-12-14T00:48:35.513Z,15.40
2018-12-14T00:49:35.539Z,14.80
2018-12-14T00:50:35.558Z,15.10
2018-12-14T00:51:35.581Z,16.10
2018-12-14T00:52:35.610Z,15.10
2018-12-14T00:53:35.629Z,14.10
2018-12-14T00:54:35.650Z,15.60
2018-12-14T00:55:35.673Z,15.10
2018-12-14T00:56:35.696Z,15.20
2018-12-14T00:57:35.720Z,14.10
2018-12-14T00:58:35.741Z,14.50
2018-12-14T00:59:35.767Z,14.30
2018-12-14T01:00:35.787Z,14.40
2018-12-14T01:01:35.810Z,15.30
2018-12-14T01:02:35.833Z,15.50
2018-12-14T01:03:35.861Z,15.70
2018-12-14T01:04:35.878Z,14.50
2018-12-14T01:05:35.901Z,14.80
2018-12-14T01:06:35.925Z,16.20
2018-12-14T01:07:35.946Z,15.10
2018-12-14T01:08:35.970Z,15.90
2018-12-14T01:09:35.993Z,15.50
2018-12-14T01:10:36.015Z,16.90
2018-12-14T01:11:36.038Z,16.50
2018-12-14T01:12:36.061Z,16.30
2018-12-14T01:13:36.089Z,15.70
2018-12-14T01:14:36.107Z,16.80
2018-12-14T01:15:36.129Z,17.60
2018-12-14T01:16:36.154Z,16.10
2018-12-14T01:17:36.178Z,16.50
2018-12-14T01:18:36.199Z,17.20
2018-12-14T01:19:36.219Z,16.90
2018-12-14T01:20:36.243Z,17.30
2018-12-14T01:21:36.265Z,17.30
2018-12-14T01:22:36.286Z,17.40
2018-12-14T01:23:36.310Z,16.40
2018-12-14T01:24:36.332Z,16.30
2018-12-14T01:25:36.356Z,17.30
2018-12-14T01:26:36.450Z,17.20
2018-12-14T01:27:36.400Z,17.20
2018-12-14T01:28:36.425Z,16.50
2018-12-14T01:29:36.445Z,17.80
2018-12-14T01:30:36.469Z,17.80
2018-12-14T01:31:36.489Z,18.70
2018-12-14T01:32:36.512Z,17.30
2018-12-14T01:33:36.537Z,17.50
2018-12-14T01:34:36.557Z,19.00
2018-12-14T01:35:36.581Z,17.20
2018-12-14T01:36:36.604Z,16.70
2018-12-14T01:37:36.625Z,16.40
2018-12-14T01:38:36.647Z,17.50
2018-12-14T01:39:36.671Z,16.60
2018-12-14T01:40:36.695Z,17.40
2018-12-14T01:41:36.715Z,16.00
2018-12-14T01:42:36.738Z,15.80
2018-12-14T01:43:36.761Z,16.40
2018-12-14T01:44:36.784Z,16.40
2018-12-14T01:45:36.805Z,16.50
2018-12-14T01:46:36.827Z,16.90
2018-12-14T01:47:36.851Z,16.90
2018-12-14T01:48:36.873Z,19.00
2018-12-14T01:49:36.898Z,18.00
2018-12-14T01:50:36.917Z,17.40
2018-12-14T01:51:36.941Z,16.90
2018-12-14T01:52:36.963Z,16.60
2018-12-14T01:53:36.989Z,16.90
2018-12-14T01:54:37.008Z,17.70
2018-12-14T01:55:37.031Z,15.60
2018-12-14T01:56:37.053Z,15.70
2018-12-14T01:57:37.076Z,17.00
2018-12-14T01:58:37.098Z,15.60
2018-12-14T01:59:37.122Z,16.20
2018-12-14T02:00:37.141Z,16.60
2018-12-14T02:01:37.166Z,14.70
2018-12-14T02:02:37.188Z,15.90
2018-12-14T02:03:37.210Z,16.30
2018-12-14T02:04:37.232Z,16.10
2018-12-14T02:05:37.257Z,15.30
2018-12-14T02:06:37.277Z,15.80
2018-12-14T02:07:37.299Z,16.00
2018-12-14T02:08:37.324Z,15.40
2018-12-14T02:09:37.346Z,16.20
2018-12-14T02:10:37.367Z,15.90
2018-12-14T02:11:37.389Z,15.60
2018-12-14T02:12:37.411Z,14.80
2018-12-14T02:13:37.436Z,15.80
2018-12-14T02:14:37.455Z,16.20
2018-12-14T02:15:37.480Z,15.60
2018-12-14T02:16:37.501Z,15.50
2018-12-14T02:17:37.524Z,15.80
2018-12-14T02:18:37.549Z,16.70
2018-12-14T02:19:37.567Z,15.60
2018-12-14T02:20:37.592Z,15.80
2018-12-14T02:21:37.613Z,15.50
2018-12-14T02:22:37.635Z,16.40
2018-12-14T02:23:37.657Z,15.70
2018-12-14T02:24:37.681Z,15.00
2018-12-14T02:25:37.702Z,14.30
2018-12-14T02:26:37.724Z,14.90
2018-12-14T02:27:37.747Z,15.40
2018-12-14T02:28:37.772Z,14.90
2018-12-14T02:29:37.791Z,14.90
2018-12-14T02:30:37.817Z,15.30
2018-12-14T02:31:37.837Z,15.40
2018-12-14T02:32:37.858Z,15.60
2018-12-14T02:33:37.881Z,14.40
2018-12-14T02:34:37.903Z,15.50
2018-12-14T02:35:37.926Z,16.20
2018-12-14T02:36:37.949Z,14.80
2018-12-14T02:37:37.969Z,14.20
2018-12-14T02:38:37.991Z,15.10
2018-12-14T02:39:40.818Z,15.20
2018-12-14T02:40:38.037Z,14.50
2018-12-14T02:41:38.057Z,13.80
2018-12-14T02:42:38.080Z,15.40
2018-12-14T02:43:38.102Z,14.90
2018-12-14T02:44:38.126Z,15.60
2018-12-14T02:45:38.158Z,14.40
2018-12-14T02:46:38.169Z,15.80
2018-12-14T02:47:38.192Z,15.50
2018-12-14T02:48:38.212Z,15.80
2018-12-14T02:49:39.816Z,14.10
2018-12-14T02:50:38.261Z,13.80
2018-12-14T02:51:38.280Z,15.20
2018-12-14T02:52:38.302Z,14.80
2018-12-14T02:53:38.323Z,14.90
2018-12-14T02:54:38.346Z,15.20
2018-12-14T02:55:38.370Z,14.50
2018-12-14T02:56:38.390Z,16.10
2018-12-14T02:57:38.412Z,15.50
2018-12-14T02:58:38.437Z,15.60
2018-12-14T02:59:38.456Z,16.10
2018-12-14T03:00:38.492Z,15.50
2018-12-14T03:01:38.500Z,15.70
2018-12-14T03:02:38.522Z,15.80
2018-12-14T03:03:38.544Z,15.40
2018-12-14T03:04:38.580Z,13.90
2018-12-14T03:05:38.589Z,14.50
2018-12-14T03:06:38.610Z,14.70
2018-12-14T03:07:38.631Z,16.60
2018-12-14T03:08:38.655Z,15.30
2018-12-14T03:09:38.677Z,15.00
2018-12-14T03:10:38.698Z,15.00
2018-12-14T03:11:38.722Z,15.40
2018-12-14T03:12:38.745Z,14.20
2018-12-14T03:13:38.765Z,15.00
2018-12-14T03:14:38.786Z,14.90
2018-12-14T03:15:38.808Z,14.50
2018-12-14T03:16:38.832Z,14.00
2018-12-14T03:17:38.855Z,14.90
2018-12-14T03:18:38.874Z,15.70
2018-12-14T03:19:38.898Z,15.10
2018-12-14T03:20:38.920Z,15.30
2018-12-14T03:21:38.941Z,15.00
2018-12-14T03:22:38.963Z,15.70
2018-12-14T03:23:38.985Z,14.60
2018-12-14T03:24:39.005Z,16.00
2018-12-14T03:25:39.028Z,14.70
2018-12-14T03:26:39.051Z,14.60
2018-12-14T03:27:39.073Z,15.70
2018-12-14T03:28:39.095Z,15.40
2018-12-14T03:29:39.117Z,13.80
2018-12-14T03:30:39.156Z,15.00
2018-12-14T03:31:39.162Z,13.70
2018-12-14T03:32:39.185Z,15.50
2018-12-14T03:33:39.205Z,14.40
2018-12-14T03:34:39.227Z,13.90
2018-12-14T03:35:39.249Z,14.80
2018-12-14T03:36:39.341Z,14.30
2018-12-14T03:37:39.292Z,13.60
2018-12-14T03:38:39.313Z,13.90
2018-12-14T03:39:39.336Z,14.70
2018-12-14T03:40:39.359Z,15.20
2018-12-14T03:41:39.381Z,15.30
2018-12-14T03:42:39.403Z,16.30
2018-12-14T03:43:39.426Z,15.20
2018-12-14T03:44:39.460Z,15.60
2018-12-14T03:45:39.468Z,15.60
2018-12-14T03:46:39.498Z,14.70
2018-12-14T03:47:39.512Z,14.90
2018-12-14T03:48:39.534Z,14.10
2018-12-14T03:49:39.557Z,14.00
2018-12-14T03:50:39.592Z,16.20
2018-12-14T03:51:39.599Z,15.60
2018-12-14T03:52:39.623Z,17.90
2018-12-14T03:53:39.646Z,16.20
2018-12-14T03:54:39.678Z,16.10
2018-12-14T03:55:39.687Z,16.30
2018-12-14T03:56:39.711Z,15.10
2018-12-14T03:57:39.733Z,16.20
2018-12-14T03:58:39.752Z,16.10
2018-12-14T03:59:39.777Z,15.80
2018-12-14T04:00:39.798Z,15.40
2018-12-14T04:01:39.820Z,14.80
2018-12-14T04:02:39.842Z,15.00
2018-12-14T04:03:39.863Z,15.20
2018-12-14T04:04:39.884Z,15.20
2018-12-14T04:05:39.906Z,15.50
2018-12-14T04:06:39.928Z,16.60
2018-12-14T04:07:39.949Z,16.40
2018-12-14T04:08:39.972Z,15.60
2018-12-14T04:09:39.994Z,16.20
2018-12-14T04:10:40.016Z,16.20
2018-12-14T04:11:40.042Z,17.10
2018-12-14T04:12:41.786Z,16.70
2018-12-14T04:13:40.081Z,15.60
2018-12-14T04:14:40.105Z,14.60
2018-12-14T04:15:40.124Z,15.90
2018-12-14T04:16:40.145Z,15.30
2018-12-14T04:17:40.168Z,15.30
2018-12-14T04:18:40.188Z,15.30
2018-12-14T04:19:40.209Z,15.60
2018-12-14T04:20:40.234Z,16.00
2018-12-14T04:21:40.341Z,14.70
2018-12-14T04:22:40.276Z,15.60
2018-12-14T04:23:40.298Z,16.10
2018-12-14T04:24:40.369Z,15.60
2018-12-14T04:25:40.342Z,16.30
2018-12-14T04:26:40.364Z,15.50
2018-12-14T04:27:40.383Z,15.00
2018-12-14T04:28:40.405Z,15.20
2018-12-14T04:29:40.428Z,15.90
2018-12-14T04:30:40.452Z,15.60
2018-12-14T04:31:40.471Z,16.50
2018-12-14T04:32:40.493Z,16.50
2018-12-14T04:33:40.520Z,15.70
2018-12-14T04:34:40.544Z,15.90
2018-12-14T04:35:40.568Z,15.10
2018-12-14T04:36:40.578Z,16.20
2018-12-14T04:37:40.600Z,15.90
2018-12-14T04:38:40.620Z,16.00
2018-12-14T04:39:40.648Z,16.90
2018-12-14T04:40:40.665Z,16.90
2018-12-14T04:41:40.686Z,16.10
2018-12-14T04:42:40.706Z,17.10
2018-12-14T04:43:40.728Z,16.70
2018-12-14T04:44:40.756Z,16.00
2018-12-14T04:45:40.773Z,17.70
2018-12-14T04:46:40.793Z,17.30
2018-12-14T04:47:40.815Z,16.90
2018-12-14T04:48:40.837Z,15.90
2018-12-14T04:49:40.858Z,16.40
2018-12-14T04:50:40.881Z,15.90
2018-12-14T04:51:40.905Z,16.10
2018-12-14T04:52:40.923Z,16.70
2018-12-14T04:53:40.945Z,16.90
2018-12-14T04:54:40.966Z,17.40
2018-12-14T04:55:40.987Z,16.60
2018-12-14T04:56:41.010Z,16.50
2018-12-14T04:57:41.033Z,16.30
2018-12-14T04:58:41.059Z,16.30
2018-12-14T04:59:41.075Z,15.80
2018-12-14T05:00:41.096Z,16.40
2018-12-14T05:01:41.119Z,15.90
2018-12-14T05:02:41.139Z,16.80
2018-12-14T05:03:41.159Z,16.40
2018-12-14T05:04:41.182Z,17.20
2018-12-14T05:05:41.204Z,16.90
2018-12-14T05:06:41.225Z,16.80
2018-12-14T05:07:41.248Z,16.10
2018-12-14T05:08:41.269Z,17.70
2018-12-14T05:09:41.291Z,17.00
2018-12-14T05:10:41.312Z,16.80
2018-12-14T05:11:41.333Z,17.90
2018-12-14T05:12:41.361Z,16.90
2018-12-14T05:13:41.382Z,17.70
2018-12-14T05:14:41.399Z,19.30
2018-12-14T05:15:41.437Z,18.20
2018-12-14T05:16:41.440Z,18.60
2018-12-14T05:17:41.462Z,17.70
2018-12-14T05:18:41.488Z,19.30
2018-12-14T05:19:41.504Z,21.60
2018-12-14T05:20:41.582Z,23.80
2018-12-14T05:21:41.549Z,23.20
2018-12-14T05:22:41.571Z,23.30
2018-12-14T05:23:41.663Z,23.80
2018-12-14T05:24:41.614Z,23.10
2018-12-14T05:25:41.634Z,20.60
2018-12-14T05:26:41.655Z,20.20
2018-12-14T05:27:41.678Z,17.90
2018-12-14T05:28:41.699Z,19.50
2018-12-14T05:29:41.721Z,18.30
2018-12-14T05:30:41.744Z,19.60
2018-12-14T05:31:41.763Z,20.90
2018-12-14T05:32:41.785Z,20.20
2018-12-14T05:33:41.808Z,21.20
2018-12-14T05:34:41.827Z,20.40
2018-12-14T05:35:41.850Z,20.90
2018-12-14T05:36:41.871Z,23.30
2018-12-14T05:37:41.892Z,20.80
2018-12-14T05:38:41.913Z,23.00
2018-12-14T05:39:41.940Z,21.50
2018-12-14T05:40:41.957Z,22.00
2018-12-14T05:41:41.980Z,20.60
2018-12-14T05:42:42.001Z,19.80
2018-12-14T05:43:42.021Z,19.60
2018-12-14T05:44:42.043Z,18.40
2018-12-14T05:45:42.064Z,18.50
2018-12-14T05:46:42.086Z,19.80
2018-12-14T05:47:42.108Z,19.60
2018-12-14T05:48:42.130Z,20.40
2018-12-14T05:49:42.151Z,20.90
2018-12-14T05:50:42.171Z,21.00
2018-12-14T05:51:42.250Z,20.90
2018-12-14T05:52:42.216Z,20.30
2018-12-14T05:53:42.236Z,20.40
2018-12-14T05:54:42.258Z,20.80
2018-12-14T05:55:42.277Z,21.00
2018-12-14T05:56:42.300Z,20.80
2018-12-14T05:57:42.322Z,19.90
2018-12-14T05:58:42.342Z,19.80
2018-12-14T05:59:42.362Z,20.40
2018-12-14T06:00:42.386Z,20.30
2018-12-14T06:01:42.408Z,22.70
2018-12-14T06:02:42.428Z,22.50
2018-12-14T06:03:42.458Z,20.30
2018-12-14T06:04:42.471Z,21.30
2018-12-14T06:05:42.492Z,19.70
2018-12-14T06:06:42.513Z,20.00
2018-12-14T06:07:42.535Z,19.70
2018-12-14T06:08:42.557Z,19.60
2018-12-14T06:09:42.579Z,18.50
2018-12-14T06:10:42.599Z,19.50
2018-12-14T06:11:45.727Z,20.60
2018-12-14T06:12:42.642Z,19.70
2018-12-14T06:13:42.664Z,20.00
2018-12-14T06:14:42.687Z,22.70
2018-12-14T06:15:42.708Z,25.30
2018-12-14T06:16:42.728Z,26.10
2018-12-14T06:17:42.749Z,25.10
2018-12-14T06:18:42.771Z,24.70
2018-12-14T06:19:42.792Z,24.60
2018-12-14T06:20:42.813Z,23.60
2018-12-14T06:21:42.836Z,24.60
2018-12-14T06:22:42.856Z,24.40
2018-12-14T06:23:42.878Z,25.00
2018-12-14T06:24:42.898Z,26.50
2018-12-14T06:25:42.921Z,27.00
2018-12-14T06:26:42.941Z,26.30
2018-12-14T06:27:42.964Z,25.20
2018-12-14T06:28:42.986Z,25.90
2018-12-14T06:29:43.007Z,24.40
2018-12-14T06:30:43.026Z,24.20
2018-12-14T06:31:43.047Z,26.60
2018-12-14T06:32:43.070Z,26.70
2018-12-14T06:33:43.091Z,24.90
2018-12-14T06:34:43.114Z,23.90
2018-12-14T06:35:43.136Z,21.50
2018-12-14T06:36:43.155Z,23.10
2018-12-14T06:37:43.181Z,24.30
2018-12-14T06:38:43.198Z,21.50
2018-12-14T06:39:43.221Z,22.10
2018-12-14T06:40:43.241Z,22.10
2018-12-14T06:41:43.263Z,21.90
2018-12-14T06:42:43.285Z,20.90
2018-12-14T06:43:43.306Z,22.40
2018-12-14T06:44:43.327Z,20.90
2018-12-14T06:45:43.348Z,23.40
2018-12-14T06:46:43.369Z,23.80
2018-12-14T06:47:43.393Z,22.40
2018-12-14T06:48:43.412Z,22.20
2018-12-14T06:49:43.434Z,21.80
2018-12-14T06:50:43.455Z,21.20
2018-12-14T06:51:43.481Z,23.50
2018-12-14T06:52:43.498Z,21.10
2018-12-14T06:53:43.519Z,21.70
2018-12-14T06:54:43.540Z,21.90
2018-12-14T06:55:43.562Z,21.40
2018-12-14T06:56:43.584Z,21.90
2018-12-14T06:57:43.606Z,21.60
2018-12-14T06:58:43.626Z,21.30
2018-12-14T06:59:43.650Z,22.10
2018-12-14T07:00:43.669Z,23.10
2018-12-14T07:01:43.691Z,23.00
2018-12-14T07:02:43.712Z,22.80
2018-12-14T07:03:43.733Z,22.70
2018-12-14T07:04:43.755Z,21.00
2018-12-14T07:05:43.776Z,21.10
2018-12-14T07:06:43.797Z,20.50
2018-12-14T07:07:43.819Z,21.70
2018-12-14T07:08:43.841Z,21.90
2018-12-14T07:09:43.863Z,21.40
2018-12-14T07:10:43.883Z,21.70
2018-12-14T07:11:43.904Z,20.60
2018-12-14T07:12:43.926Z,22.80
2018-12-14T07:13:43.947Z,21.80
2018-12-14T07:14:43.968Z,20.70
2018-12-14T07:15:43.990Z,21.40
2018-12-14T07:16:44.012Z,21.00
2018-12-14T07:17:44.033Z,22.00
2018-12-14T07:18:44.054Z,21.80
2018-12-14T07:19:44.077Z,22.60
2018-12-14T07:20:44.098Z,21.30
2018-12-14T07:21:44.171Z,21.20
2018-12-14T07:22:44.142Z,21.50
2018-12-14T07:23:44.161Z,21.10
2018-12-14T07:24:44.185Z,22.90
2018-12-14T07:25:44.207Z,22.00
2018-12-14T07:26:44.228Z,19.30
2018-12-14T07:27:44.248Z,20.10
2018-12-14T07:28:44.271Z,20.40
2018-12-14T07:29:44.292Z,21.40
2018-12-14T07:30:44.313Z,21.00
2018-12-14T07:31:44.336Z,21.10
2018-12-14T07:32:44.360Z,20.00
2018-12-14T07:33:44.379Z,19.80
2018-12-14T07:34:44.400Z,18.70
2018-12-14T07:35:44.421Z,19.40
2018-12-14T07:36:44.443Z,20.00
2018-12-14T07:37:44.482Z,20.20
2018-12-14T07:38:48.180Z,19.60
2018-12-14T07:39:44.507Z,20.70
2018-12-14T07:40:44.530Z,21.20
2018-12-14T07:41:44.553Z,20.30
2018-12-14T07:42:44.571Z,19.90
2018-12-14T07:43:44.592Z,20.80
2018-12-14T07:44:44.731Z,20.80
2018-12-14T07:45:44.636Z,21.30
2018-12-14T07:46:44.658Z,22.00
2018-12-14T07:47:44.682Z,21.90
2018-12-14T07:48:44.705Z,21.00
2018-12-14T07:49:44.725Z,21.60
2018-12-14T07:50:44.747Z,22.80
2018-12-14T07:51:44.765Z,25.30
2018-12-14T07:52:44.788Z,26.20
2018-12-14T07:53:44.810Z,25.90
2018-12-14T07:54:44.831Z,24.50
2018-12-14T07:55:44.853Z,24.70
2018-12-14T07:56:44.875Z,27.00
2018-12-14T07:57:44.897Z,28.50
2018-12-14T07:58:44.918Z,29.10
2018-12-14T07:59:44.940Z,27.90
2018-12-14T08:00:44.964Z,26.80
2018-12-14T08:01:44.984Z,28.10
2018-12-14T08:02:45.006Z,29.20
2018-12-14T08:03:45.028Z,28.70
2018-12-14T08:04:45.049Z,28.40
2018-12-14T08:05:45.083Z,28.10
2018-12-14T08:06:45.093Z,27.80
2018-12-14T08:07:45.171Z,26.10
2018-12-14T08:08:45.138Z,27.60
2018-12-14T08:09:45.159Z,24.80
2018-12-14T08:10:45.184Z,25.20
2018-12-14T08:11:45.204Z,23.80
2018-12-14T08:12:45.225Z,25.00
2018-12-14T08:13:45.249Z,23.80
2018-12-14T08:14:45.268Z,25.20
2018-12-14T08:15:45.291Z,24.80
2018-12-14T08:16:45.314Z,24.40
2018-12-14T08:17:45.335Z,23.80
2018-12-14T08:18:45.357Z,22.90
2018-12-14T08:19:45.380Z,22.40
2018-12-14T08:20:45.402Z,22.60
2018-12-14T08:21:45.424Z,22.50
2018-12-14T08:22:45.446Z,21.50
2018-12-14T08:23:45.469Z,21.80
2018-12-14T08:24:45.491Z,21.80
2018-12-14T08:25:45.513Z,21.90
2018-12-14T08:26:45.535Z,22.80
2018-12-14T08:27:45.558Z,22.60
2018-12-14T08:28:45.581Z,23.60
2018-12-14T08:29:45.603Z,23.40
2018-12-14T08:30:45.626Z,20.70
2018-12-14T08:31:45.648Z,21.90
2018-12-14T08:32:45.669Z,21.70
2018-12-14T08:33:45.692Z,22.80
2018-12-14T08:34:50.955Z,22.60
2018-12-14T08:35:45.737Z,23.50
2018-12-14T08:36:45.760Z,23.90
2018-12-14T08:37:45.782Z,22.30
2018-12-14T08:38:45.806Z,23.10
2018-12-14T08:39:45.827Z,22.30
2018-12-14T08:40:45.851Z,21.90
2018-12-14T08:41:45.873Z,24.10
2018-12-14T08:42:45.895Z,22.90
2018-12-14T08:43:45.918Z,23.00
2018-12-14T08:44:45.942Z,22.70
2018-12-14T08:45:45.966Z,22.10
2018-12-14T08:46:45.986Z,21.10
2018-12-14T08:47:46.008Z,19.80
2018-12-14T08:48:46.033Z,21.50
2018-12-14T08:49:46.056Z,21.70
2018-12-14T08:50:46.078Z,22.50
2018-12-14T08:51:46.101Z,21.30
2018-12-14T08:52:46.124Z,21.80
2018-12-14T08:53:46.150Z,21.40
2018-12-14T08:54:46.172Z,21.70
2018-12-14T08:55:46.193Z,21.30
2018-12-14T08:56:46.223Z,21.50
2018-12-14T08:57:46.241Z,21.10
2018-12-14T08:58:46.262Z,20.40
2018-12-14T08:59:46.284Z,22.10
2018-12-14T09:00:46.308Z,22.10
2018-12-14T09:01:46.334Z,22.00
2018-12-14T09:02:46.356Z,19.70
2018-12-14T09:03:46.384Z,20.80
2018-12-14T09:04:46.405Z,20.10
2018-12-14T09:05:46.425Z,20.70
2018-12-14T09:06:46.450Z,20.60
2018-12-14T09:07:46.474Z,20.60
2018-12-14T09:08:46.497Z,20.30
2018-12-14T09:09:46.520Z,21.40
2018-12-14T09:10:46.543Z,20.40
2018-12-14T09:11:46.568Z,20.50
2018-12-14T09:12:46.591Z,20.30
2018-12-14T09:13:48.054Z,19.30
2018-12-14T09:14:46.955Z,20.30
2018-12-14T09:15:46.662Z,19.00
2018-12-14T09:16:46.685Z,19.80
2018-12-14T09:17:46.709Z,19.30
2018-12-14T09:18:46.730Z,19.00
2018-12-14T09:19:46.757Z,19.50
2018-12-14T09:20:46.779Z,20.70
2018-12-14T09:21:47.055Z,20.60
2018-12-14T09:22:46.830Z,20.20
2018-12-14T09:23:46.851Z,20.70
2018-12-14T09:24:46.875Z,20.10
2018-12-14T09:25:46.899Z,20.20
2018-12-14T09:26:46.922Z,20.50
2018-12-14T09:27:46.950Z,20.30
2018-12-14T09:28:46.972Z,20.10
2018-12-14T09:29:46.996Z,20.40
2018-12-14T09:30:47.017Z,24.50
2018-12-14T09:31:47.044Z,26.00
2018-12-14T09:32:47.067Z,27.60
2018-12-14T09:33:47.090Z,30.10
2018-12-14T09:34:47.115Z,25.90
2018-12-14T09:35:47.137Z,20.30
2018-12-14T09:36:47.163Z,21.20
2018-12-14T09:37:47.188Z,19.90
2018-12-14T09:38:47.211Z,21.40
2018-12-14T09:39:47.312Z,19.50
2018-12-14T09:40:47.261Z,19.10
2018-12-14T09:41:47.285Z,18.70
2018-12-14T09:42:47.309Z,18.10
2018-12-14T09:43:47.334Z,19.00
2018-12-14T09:44:47.359Z,19.90
2018-12-14T09:45:47.383Z,19.20
2018-12-14T09:46:47.407Z,20.40
2018-12-14T09:47:47.436Z,19.20
2018-12-14T09:48:47.458Z,19.50
2018-12-14T09:49:47.482Z,18.80
2018-12-14T09:50:47.507Z,20.20
2018-12-14T09:51:47.532Z,20.30
2018-12-14T09:52:47.555Z,20.20
2018-12-14T09:53:47.581Z,20.30
2018-12-14T09:54:47.605Z,19.40
2018-12-14T09:55:47.646Z,19.40
2018-12-14T09:56:47.654Z,19.70
2018-12-14T09:57:47.679Z,20.10
2018-12-14T09:58:47.703Z,19.30
2018-12-14T09:59:47.731Z,18.90
2018-12-14T10:00:47.754Z,20.70
2018-12-14T10:01:47.780Z,22.90
2018-12-14T10:02:47.804Z,20.30
2018-12-14T10:03:47.829Z,20.60
2018-12-14T10:04:47.855Z,21.00
2018-12-14T10:05:47.880Z,21.80
2018-12-14T10:06:47.905Z,20.50
2018-12-14T10:07:47.930Z,21.70
2018-12-14T10:08:47.955Z,19.90
2018-12-14T10:09:47.980Z,19.90
2018-12-14T10:10:48.005Z,20.60
2018-12-14T10:11:49.351Z,19.90
2018-12-14T10:12:48.116Z,19.40
2018-12-14T10:13:48.082Z,20.00
2018-12-14T10:14:48.104Z,19.50
2018-12-14T10:15:48.130Z,18.50
2018-12-14T10:16:48.156Z,19.60
2018-12-14T10:17:48.181Z,19.70
2018-12-14T10:18:48.207Z,18.70
2018-12-14T10:19:48.233Z,20.00
2018-12-14T10:20:48.257Z,20.00
2018-12-14T10:21:48.286Z,24.00
2018-12-14T10:22:48.358Z,25.60
2018-12-14T10:23:48.333Z,19.70
2018-12-14T10:24:48.359Z,19.00
2018-12-14T10:25:48.414Z,19.40
2018-12-14T10:26:48.409Z,21.10
2018-12-14T10:27:48.436Z,20.70
2018-12-14T10:28:48.462Z,19.70
2018-12-14T10:29:48.488Z,18.50
2018-12-14T10:30:48.513Z,18.10
2018-12-14T10:31:48.538Z,20.00
2018-12-14T10:32:48.564Z,18.90
2018-12-14T10:33:48.590Z,18.50
2018-12-14T10:34:48.614Z,19.00
2018-12-14T10:35:48.639Z,20.00
2018-12-14T10:36:48.667Z,19.70
2018-12-14T10:37:48.691Z,18.30
2018-12-14T10:38:48.722Z,17.60
2018-12-14T10:39:48.742Z,17.50
2018-12-14T10:40:48.768Z,17.50
2018-12-14T10:41:48.794Z,19.30
2018-12-14T10:42:48.820Z,18.50
2018-12-14T10:43:48.847Z,19.70
2018-12-14T10:44:48.871Z,20.10
2018-12-14T10:45:48.898Z,19.00
2018-12-14T10:46:48.922Z,19.50
2018-12-14T10:47:48.948Z,21.80
2018-12-14T10:48:48.974Z,23.50
2018-12-14T10:49:49.001Z,32.20
2018-12-14T10:50:49.026Z,36.30
2018-12-14T10:51:49.051Z,43.40
2018-12-14T10:52:49.077Z,39.40
2018-12-14T10:53:49.103Z,36.00
2018-12-14T10:54:49.129Z,27.10
2018-12-14T10:55:49.154Z,27.50
2018-12-14T10:56:49.181Z,27.80
2018-12-14T10:57:49.206Z,27.20
2018-12-14T10:58:49.231Z,27.90
2018-12-14T10:59:49.257Z,25.80
2018-12-14T11:00:49.282Z,24.40
2018-12-14T11:01:49.309Z,22.80
2018-12-14T11:02:49.332Z,21.70
2018-12-14T11:03:49.360Z,19.70
2018-12-14T11:04:49.387Z,21.10
2018-12-14T11:05:49.414Z,20.80
2018-12-14T11:06:49.438Z,21.10
2018-12-14T11:07:49.465Z,20.80
2018-12-14T11:08:49.489Z,19.60
2018-12-14T11:09:49.519Z,20.10
2018-12-14T11:10:49.541Z,18.80
2018-12-14T11:11:49.567Z,18.20
2018-12-14T11:12:49.593Z,18.50
2018-12-14T11:13:49.620Z,18.70
2018-12-14T11:14:49.644Z,18.50
2018-12-14T11:15:49.670Z,20.40
2018-12-14T11:16:49.697Z,19.10
2018-12-14T11:17:49.723Z,18.40
2018-12-14T11:18:49.747Z,19.30
2018-12-14T11:19:49.774Z,17.60
2018-12-14T11:20:49.801Z,19.10
2018-12-14T11:21:49.827Z,18.50
2018-12-14T11:22:49.851Z,19.00
2018-12-14T11:23:49.878Z,19.20
2018-12-14T11:24:49.904Z,19.50
2018-12-14T11:25:49.930Z,20.70
2018-12-14T11:26:49.954Z,19.80
2018-12-14T11:27:49.981Z,20.20
2018-12-14T11:28:50.008Z,20.40
2018-12-14T11:29:50.033Z,20.10
2018-12-14T11:30:50.059Z,20.20
2018-12-14T11:31:50.085Z,21.70
2018-12-14T11:32:50.112Z,21.20
2018-12-14T11:33:50.138Z,20.70
2018-12-14T11:34:50.163Z,20.90
2018-12-14T11:35:50.189Z,20.60
2018-12-14T11:36:50.215Z,20.50
2018-12-14T11:37:50.241Z,18.40
2018-12-14T11:38:50.267Z,19.30
2018-12-14T11:39:50.294Z,19.20
2018-12-14T11:40:50.318Z,20.40
2018-12-14T11:41:50.346Z,20.30
2018-12-14T11:42:50.371Z,19.90
2018-12-14T11:43:50.396Z,20.10
2018-12-14T11:44:50.422Z,20.50
2018-12-14T11:45:50.448Z,19.70
2018-12-14T11:46:50.473Z,19.40
2018-12-14T11:47:50.500Z,19.20
2018-12-14T11:48:50.526Z,19.00
2018-12-14T11:49:50.552Z,18.70
2018-12-14T11:50:50.576Z,19.80
2018-12-14T11:51:50.604Z,20.40
2018-12-14T11:52:50.628Z,20.30
2018-12-14T11:53:50.654Z,18.90
2018-12-14T11:54:50.681Z,18.90
2018-12-14T11:55:50.707Z,18.50
2018-12-14T11:56:50.732Z,19.20
2018-12-14T11:57:50.759Z,18.60
2018-12-14T11:58:50.783Z,19.10
2018-12-14T11:59:50.809Z,19.70
2018-12-14T12:00:50.835Z,20.70
2018-12-14T12:01:50.861Z,20.40
2018-12-14T12:02:50.887Z,19.20
2018-12-14T12:03:50.913Z,20.70
2018-12-14T12:04:50.939Z,20.90
2018-12-14T12:05:50.968Z,22.10
2018-12-14T12:06:50.990Z,20.00
2018-12-14T12:07:51.016Z,20.20
2018-12-14T12:08:51.044Z,19.10
2018-12-14T12:09:51.069Z,19.30
2018-12-14T12:10:51.094Z,18.60
2018-12-14T12:11:51.120Z,19.60
2018-12-14T12:12:51.196Z,20.70
2018-12-14T12:13:51.172Z,17.60
2018-12-14T12:14:51.197Z,18.60
2018-12-14T12:15:51.225Z,21.70
2018-12-14T12:16:51.250Z,19.90
2018-12-14T12:17:51.278Z,19.10
2018-12-14T12:18:51.301Z,18.60
2018-12-14T12:19:51.328Z,19.40
2018-12-14T12:20:51.355Z,18.80
2018-12-14T12:21:51.382Z,19.40
2018-12-14T12:22:51.407Z,21.70
2018-12-14T12:23:55.268Z,24.50
2018-12-14T12:24:51.458Z,18.70
2018-12-14T12:25:51.483Z,18.70
2018-12-14T12:26:51.509Z,16.90
2018-12-14T12:27:51.537Z,18.60
2018-12-14T12:28:51.560Z,20.00
2018-12-14T12:29:51.588Z,19.90
2018-12-14T12:30:51.613Z,20.30
2018-12-14T12:31:51.639Z,21.30
2018-12-14T12:32:51.665Z,19.20
2018-12-14T12:33:51.691Z,17.50
2018-12-14T12:34:51.717Z,17.60
2018-12-14T12:35:51.745Z,18.60
2018-12-14T12:36:51.771Z,18.70
2018-12-14T12:37:51.794Z,18.30
2018-12-14T12:38:51.820Z,18.70
2018-12-14T12:39:51.846Z,18.10
2018-12-14T12:40:51.872Z,17.20
2018-12-14T12:41:51.900Z,17.20
2018-12-14T12:42:51.923Z,17.80
2018-12-14T12:43:51.948Z,19.30
2018-12-14T12:44:51.980Z,18.30
2018-12-14T12:45:52.001Z,17.80
2018-12-14T12:46:52.026Z,18.70
2018-12-14T12:47:52.050Z,17.50
2018-12-14T12:48:52.077Z,17.20
2018-12-14T12:49:52.102Z,17.50
2018-12-14T12:50:52.128Z,17.30
2018-12-14T12:51:52.154Z,17.50
2018-12-14T12:52:52.180Z,17.30